Time;durP1;ratioP1;P1;durP2;ratioP2;P2;SDS_P1;SDS_P2;PMS_P1;PMS_P2;Temp;Humidity;BMP_temperature;BMP_pressure;BME280_temperature;BME280_humidity;BME280_pressure;Samples;Min_cycle;Max_cycle;Signal;HPM_P1;HPM_P2
2021/09/02 00:01:17;;;;;;;16.17;12.18;;;;;;;13.53;100.00;101804.31;5013340;28;20103;-65
2021/09/02 00:03:44;;;;;;;13.90;11.63;;;;;;;13.55;100.00;101804.22;5013493;28;20045;-63
2021/09/02 00:06:11;;;;;;;16.88;11.80;;;;;;;13.63;100.00;101799.38;5048018;28;20114;-64
2021/09/02 00:08:38;;;;;;;16.20;11.98;;;;;;;13.65;100.00;101797.53;5043347;28;20080;-63
2021/09/02 00:11:06;;;;;;;20.98;11.32;;;;;;;13.80;100.00;101791.41;5047028;28;20048;-64
2021/09/02 00:13:33;;;;;;;14.60;10.60;;;;;;;13.84;100.00;101797.41;5033646;28;20392;-64
2021/09/02 00:16:04;;;;;;;14.75;11.00;;;;;;;13.93;100.00;101802.19;5040206;28;20132;-66
2021/09/02 00:18:31;;;;;;;17.38;12.15;;;;;;;13.87;100.00;101805.19;5030709;28;20103;-62
2021/09/02 00:20:58;;;;;;;14.20;10.85;;;;;;;13.96;100.00;101807.31;5045099;28;20463;-65
2021/09/02 00:23:25;;;;;;;15.25;10.77;;;;;;;13.92;100.00;101797.84;5046558;28;20068;-65
2021/09/02 00:25:53;;;;;;;16.50;11.93;;;;;;;13.99;100.00;101801.00;5052304;28;20045;-65
2021/09/02 00:28:22;;;;;;;17.30;10.25;;;;;;;14.04;100.00;101809.53;5033916;28;20909;-65
2021/09/02 00:30:49;;;;;;;18.33;11.20;;;;;;;14.05;100.00;101812.13;5024335;28;20593;-64
2021/09/02 00:33:17;;;;;;;13.43;10.15;;;;;;;14.03;100.00;101808.69;5027765;28;20052;-65
2021/09/02 00:35:46;;;;;;;15.95;9.98;;;;;;;14.08;100.00;101811.94;5027320;28;20067;-65
2021/09/02 00:38:13;;;;;;;14.35;10.15;;;;;;;14.09;100.00;101818.94;5033341;28;20071;-65
2021/09/02 00:40:40;;;;;;;13.57;10.18;;;;;;;14.05;100.00;101820.06;5021723;28;20065;-64
2021/09/02 00:43:08;;;;;;;13.80;10.15;;;;;;;14.04;100.00;101828.91;5043406;28;20071;-68
2021/09/02 00:45:35;;;;;;;14.20;9.93;;;;;;;14.13;100.00;101825.78;5047119;28;20060;-64
2021/09/02 00:48:03;;;;;;;16.33;10.27;;;;;;;14.11;100.00;101829.47;5028819;28;20103;-66
2021/09/02 00:50:30;;;;;;;15.20;10.25;;;;;;;14.13;100.00;101824.91;5042416;28;20144;-64
2021/09/02 00:52:59;;;;;;;14.02;9.88;;;;;;;14.16;100.00;101825.63;5022883;28;20135;-64
2021/09/02 00:55:26;;;;;;;14.70;9.95;;;;;;;14.16;100.00;101824.75;5039163;28;20043;-66
2021/09/02 00:57:53;;;;;;;14.68;10.27;;;;;;;14.18;100.00;101829.06;5027295;28;20045;-65
2021/09/02 01:00:20;;;;;;;17.15;10.90;;;;;;;14.18;100.00;101826.41;5039776;28;20148;-64
2021/09/02 01:02:48;;;;;;;17.95;10.55;;;;;;;14.16;100.00;101825.63;5047789;28;20055;-65
2021/09/02 01:05:18;;;;;;;11.70;9.50;;;;;;;14.10;100.00;101819.81;5043719;28;20056;-65
2021/09/02 01:07:47;;;;;;;17.23;10.60;;;;;;;14.08;100.00;101827.81;5016926;28;20128;-64
2021/09/02 01:10:15;;;;;;;14.65;11.27;;;;;;;14.05;100.00;101825.34;5026010;28;20057;-64
2021/09/02 01:12:45;;;;;;;14.68;10.55;;;;;;;14.03;100.00;101821.06;5029125;28;20040;-64
2021/09/02 01:15:18;;;;;;;14.35;10.15;;;;;;;14.05;100.00;101824.47;5026433;28;20033;-64
2021/09/02 01:17:49;;;;;;;14.93;9.98;;;;;;;14.05;100.00;101813.88;5034968;28;20052;-64
2021/09/02 01:20:19;;;;;;;16.95;11.75;;;;;;;14.00;100.00;101822.06;5024529;28;20052;-63
2021/09/02 01:22:50;;;;;;;18.67;9.88;;;;;;;13.99;100.00;101811.59;5027345;28;20521;-64
2021/09/02 01:25:20;;;;;;;12.27;9.18;;;;;;;13.98;100.00;101816.03;5045516;28;20620;-64
2021/09/02 01:27:53;;;;;;;15.32;10.27;;;;;;;13.92;100.00;101805.78;5049763;28;20041;-63
2021/09/02 01:30:21;;;;;;;11.85;8.65;;;;;;;13.93;100.00;101812.78;5024757;28;20053;-64
2021/09/02 01:32:49;;;;;;;15.85;9.98;;;;;;;13.92;100.00;101811.94;5034091;28;20123;-64
2021/09/02 01:35:18;;;;;;;11.27;9.32;;;;;;;13.88;100.00;101815.66;5028542;28;20061;-64
2021/09/02 01:37:48;;;;;;;14.13;8.90;;;;;;;14.02;100.00;101809.63;5050444;28;20147;-64
2021/09/02 01:40:21;;;;;;;13.27;9.75;;;;;;;13.89;100.00;101811.22;5032200;28;20131;-64
2021/09/02 01:42:49;;;;;;;12.38;9.13;;;;;;;13.99;100.00;101819.53;5049038;28;20139;-64
2021/09/02 01:45:17;;;;;;;12.95;8.85;;;;;;;13.98;100.00;101816.03;5039921;28;20045;-63
2021/09/02 01:47:44;;;;;;;14.32;8.60;;;;;;;14.00;100.00;101814.13;5051760;28;20092;-64
2021/09/02 01:50:23;;;;;;;12.13;8.50;;;;;;;14.02;100.00;101822.03;5032574;28;20499;-64
2021/09/02 01:52:53;;;;;;;11.98;8.40;;;;;;;14.02;100.00;101819.38;5013573;28;20045;-65
2021/09/02 01:55:22;;;;;;;12.63;8.75;;;;;;;14.08;100.00;101819.88;5012872;28;20595;-65
2021/09/02 01:57:50;;;;;;;13.20;8.30;;;;;;;14.08;100.00;101819.03;5045258;28;20133;-64
2021/09/02 02:00:18;;;;;;;12.02;9.60;;;;;;;14.06;100.00;101824.41;5025752;28;20133;-64
2021/09/02 02:02:46;;;;;;;12.60;9.27;;;;;;;14.01;100.00;101818.53;5034285;28;20433;-65
2021/09/02 02:05:14;;;;;;;13.30;9.48;;;;;;;13.90;100.00;101812.94;5043474;28;20948;-64
2021/09/02 02:07:42;;;;;;;18.20;9.85;;;;;;;13.84;100.00;101811.47;5024007;28;20067;-63
2021/09/02 02:10:12;;;;;;;13.35;9.57;;;;;;;13.85;100.00;101810.53;5028648;28;20106;-65
2021/09/02 02:12:39;;;;;;;17.67;9.32;;;;;;;13.88;100.00;101818.31;5010117;28;20129;-64
2021/09/02 02:15:07;;;;;;;17.45;9.45;;;;;;;13.83;100.00;101803.63;5043228;28;20579;-65
2021/09/02 02:17:34;;;;;;;12.98;10.23;;;;;;;13.71;100.00;101814.88;5046875;28;20080;-67
2021/09/02 02:20:03;;;;;;;15.30;9.80;;;;;;;13.70;100.00;101802.56;5042832;28;20045;-67
2021/09/02 02:22:30;;;;;;;14.20;10.30;;;;;;;13.67;100.00;101807.06;5053973;28;20136;-65
2021/09/02 02:24:58;;;;;;;15.43;10.88;;;;;;;13.71;100.00;101804.28;5046394;28;20049;-64
2021/09/02 02:27:26;;;;;;;16.40;10.63;;;;;;;13.68;100.00;101810.56;5052547;28;20442;-65
2021/09/02 02:29:54;;;;;;;13.90;10.63;;;;;;;13.64;100.00;101804.63;5014109;28;20055;-65
2021/09/02 02:32:21;;;;;;;17.77;10.93;;;;;;;13.52;100.00;101807.91;5011954;28;20419;-63
2021/09/02 02:34:48;;;;;;;12.63;9.90;;;;;;;13.46;100.00;101812.63;5044704;28;20072;-65
2021/09/02 02:37:15;;;;;;;13.23;10.02;;;;;;;13.43;100.00;101808.38;5027962;28;20045;-65
2021/09/02 02:39:43;;;;;;;16.88;10.52;;;;;;;13.36;100.00;101812.25;5022558;28;20104;-64
2021/09/02 02:42:10;;;;;;;13.82;10.38;;;;;;;13.46;100.00;101805.56;5039534;28;20501;-65
2021/09/02 02:44:38;;;;;;;16.77;9.82;;;;;;;13.41;100.00;101808.44;5040119;28;20139;-65
2021/09/02 02:47:06;;;;;;;17.13;11.00;;;;;;;13.50;100.00;101806.25;5054336;28;20075;-64
2021/09/02 02:49:34;;;;;;;12.43;9.70;;;;;;;13.48;100.00;101795.75;5048925;28;20063;-66
2021/09/02 02:52:02;;;;;;;13.10;10.38;;;;;;;13.53;100.00;101795.53;5032019;28;20098;-64
2021/09/02 02:54:29;;;;;;;14.68;10.73;;;;;;;13.41;100.00;101797.84;5008937;28;20144;-64
2021/09/02 02:56:57;;;;;;;15.15;10.60;;;;;;;13.36;100.00;101802.53;5017939;28;20533;-65
2021/09/02 02:59:24;;;;;;;15.85;11.18;;;;;;;13.32;100.00;101811.56;5045665;28;20640;-65
2021/09/02 03:01:51;;;;;;;14.48;11.15;;;;;;;13.39;100.00;101801.53;5052979;28;20128;-63
2021/09/02 03:04:18;;;;;;;13.25;9.63;;;;;;;13.37;100.00;101806.03;5015880;28;20057;-64
2021/09/02 03:06:46;;;;;;;14.48;11.52;;;;;;;13.29;100.00;101808.25;5045486;28;20102;-64
2021/09/02 03:09:13;;;;;;;13.20;10.10;;;;;;;13.33;100.00;101809.81;5044305;28;20408;-64
2021/09/02 03:11:40;;;;;;;13.00;10.38;;;;;;;13.28;100.00;101807.34;5048603;28;20073;-63
2021/09/02 03:14:07;;;;;;;15.07;10.75;;;;;;;13.35;100.00;101808.75;5050184;28;20041;-64
2021/09/02 03:16:35;;;;;;;19.50;10.80;;;;;;;13.47;100.00;101809.09;5029676;28;20053;-64
2021/09/02 03:19:02;;;;;;;15.52;10.88;;;;;;;13.47;100.00;101807.28;5045421;28;20112;-64
2021/09/02 03:21:29;;;;;;;18.20;11.27;;;;;;;13.42;100.00;101806.69;5059243;28;20061;-63
2021/09/02 03:23:56;;;;;;;16.98;10.57;;;;;;;13.39;100.00;101809.47;5045134;28;20114;-63
2021/09/02 03:26:24;;;;;;;19.63;11.00;;;;;;;13.41;100.00;101815.53;5045913;28;20029;-64
2021/09/02 03:28:51;;;;;;;23.05;11.65;;;;;;;13.40;100.00;101808.53;5029976;28;20075;-64
2021/09/02 03:31:18;;;;;;;15.38;10.85;;;;;;;13.36;100.00;101809.63;5029762;28;20060;-63
2021/09/02 03:33:45;;;;;;;14.13;10.73;;;;;;;13.34;100.00;101811.50;5032231;28;20144;-64
2021/09/02 03:36:13;;;;;;;15.02;11.32;;;;;;;13.31;100.00;101811.66;5031993;28;20059;-65
2021/09/02 03:38:40;;;;;;;17.45;10.75;;;;;;;13.30;100.00;101813.44;5027767;28;20061;-63
2021/09/02 03:41:08;;;;;;;18.13;11.45;;;;;;;13.39;100.00;101815.63;5025695;28;20049;-63
2021/09/02 03:43:35;;;;;;;15.80;10.98;;;;;;;13.32;100.00;101821.28;5025619;28;20431;-64
2021/09/02 03:46:02;;;;;;;15.02;11.98;;;;;;;13.38;100.00;101821.84;5041595;28;20537;-63
2021/09/02 03:48:30;;;;;;;17.65;11.95;;;;;;;13.42;100.00;101826.03;5007789;28;20696;-64
2021/09/02 03:50:57;;;;;;;18.98;12.18;;;;;;;13.48;100.00;101827.50;5047396;28;20545;-66
2021/09/02 03:53:24;;;;;;;18.15;11.48;;;;;;;13.43;100.00;101827.75;5029439;28;20899;-64
2021/09/02 03:55:51;;;;;;;21.88;11.80;;;;;;;13.44;100.00;101828.59;5043744;28;20140;-65
2021/09/02 03:58:18;;;;;;;25.83;15.82;;;;;;;13.37;100.00;101835.13;5025152;28;20083;-63
2021/09/02 04:00:46;;;;;;;15.00;10.95;;;;;;;13.30;100.00;101824.03;5043219;28;20391;-63
2021/09/02 04:03:13;;;;;;;16.77;11.73;;;;;;;13.21;100.00;101828.91;5027027;28;20140;-64
2021/09/02 04:05:40;;;;;;;14.90;12.10;;;;;;;13.17;100.00;101828.19;5046441;28;20043;-64
2021/09/02 04:08:08;;;;;;;19.30;11.80;;;;;;;13.10;100.00;101832.94;5032302;28;20527;-64
2021/09/02 04:10:35;;;;;;;19.80;11.57;;;;;;;13.09;100.00;101840.94;5036331;28;20037;-64
2021/09/02 04:13:02;;;;;;;21.17;12.25;;;;;;;13.09;100.00;101830.34;5047745;28;20048;-63
2021/09/02 04:15:29;;;;;;;17.48;12.57;;;;;;;13.09;100.00;101835.66;5042358;28;20072;-63
2021/09/02 04:17:57;;;;;;;19.08;11.82;;;;;;;13.14;100.00;101838.91;5029278;28;20151;-63
2021/09/02 04:20:28;;;;;;;17.73;12.38;;;;;;;13.15;100.00;101833.56;5023693;28;20069;-63
2021/09/02 04:22:56;;;;;;;19.17;12.00;;;;;;;13.17;100.00;101831.69;5047594;28;20140;-65
2021/09/02 04:25:23;;;;;;;16.75;11.27;;;;;;;13.12;100.00;101831.06;5046108;28;20068;-63
2021/09/02 04:27:50;;;;;;;19.95;12.20;;;;;;;13.12;100.00;101836.34;5047798;28;20049;-63
2021/09/02 04:30:18;;;;;;;17.65;12.43;;;;;;;13.17;100.00;101839.63;5043168;28;20499;-65
2021/09/02 04:32:45;;;;;;;15.25;12.48;;;;;;;13.16;100.00;101835.25;5047396;28;20560;-62
2021/09/02 04:35:13;;;;;;;16.73;11.70;;;;;;;13.09;100.00;101835.66;5048397;28;20503;-64
2021/09/02 04:37:43;;;;;;;15.90;12.10;;;;;;;13.08;100.00;101834.78;5034827;28;20088;-63
2021/09/02 04:40:12;;;;;;;19.25;13.43;;;;;;;13.11;100.00;101837.28;5039918;28;20068;-64
2021/09/02 04:42:39;;;;;;;24.77;12.18;;;;;;;13.24;100.00;101839.31;5028355;28;20128;-63
2021/09/02 04:45:08;;;;;;;16.13;11.38;;;;;;;13.20;100.00;101838.63;5027992;28;20090;-65
2021/09/02 04:47:35;;;;;;;19.88;13.07;;;;;;;13.23;100.00;101842.91;5012179;28;20132;-66
2021/09/02 04:50:05;;;;;;;17.10;12.10;;;;;;;13.27;100.00;101850.63;5025647;28;20044;-65
2021/09/02 04:52:32;;;;;;;19.75;12.48;;;;;;;13.23;100.00;101848.19;5042729;28;20132;-64
2021/09/02 04:54:59;;;;;;;18.23;11.73;;;;;;;13.23;100.00;101849.06;5022945;28;20637;-63
2021/09/02 04:57:27;;;;;;;19.48;11.93;;;;;;;13.33;100.00;101847.69;5043208;28;20388;-65
2021/09/02 04:59:54;;;;;;;24.40;12.30;;;;;;;13.38;100.00;101850.94;4993242;28;20073;-64
2021/09/02 05:02:21;;;;;;;23.77;12.05;;;;;;;13.39;100.00;101857.94;5016670;28;20068;-67
2021/09/02 05:04:49;;;;;;;17.30;11.77;;;;;;;13.54;100.00;101860.72;5043793;28;20531;-65
2021/09/02 05:07:17;;;;;;;18.90;11.63;;;;;;;13.59;100.00;101862.19;5030009;28;20057;-65
2021/09/02 05:09:44;;;;;;;17.27;11.73;;;;;;;13.63;100.00;101857.59;5038941;28;20061;-64
2021/09/02 05:12:15;;;;;;;24.73;12.27;;;;;;;13.72;100.00;101856.25;5032862;28;20075;-66
2021/09/02 05:14:46;;;;;;;17.63;10.63;;;;;;;13.75;100.00;101856.13;5033690;28;20120;-66
2021/09/02 05:17:14;;;;;;;14.90;11.30;;;;;;;13.72;100.00;101858.91;5048115;28;20053;-65
2021/09/02 05:19:43;;;;;;;15.32;10.95;;;;;;;13.83;100.00;101859.22;5024834;28;20098;-66
2021/09/02 05:22:10;;;;;;;19.08;11.90;;;;;;;13.97;100.00;101863.78;5010461;28;20133;-67
2021/09/02 05:24:37;;;;;;;20.45;10.85;;;;;;;14.02;100.00;101864.38;5027162;28;20051;-66
2021/09/02 05:27:05;;;;;;;14.20;10.50;;;;;;;14.07;100.00;101868.47;5010608;28;20044;-66
2021/09/02 05:29:33;;;;;;;17.20;11.32;;;;;;;14.27;100.00;101864.75;5019176;28;20106;-65
2021/09/02 05:32:01;;;;;;;20.90;11.38;;;;;;;14.47;100.00;101865.47;5020158;28;20125;-66
2021/09/02 05:34:29;;;;;;;18.65;11.48;;;;;;;14.40;100.00;101857.84;5048595;28;20083;-67
2021/09/02 05:36:56;;;;;;;17.85;11.23;;;;;;;14.38;100.00;101858.88;5024499;28;20470;-65
2021/09/02 05:39:31;;;;;;;21.13;12.43;;;;;;;14.41;100.00;101859.56;5050397;28;20080;-66
2021/09/02 05:42:02;;;;;;;20.70;11.82;;;;;;;14.61;100.00;101862.91;5044409;28;20072;-65
2021/09/02 05:44:30;;;;;;;19.67;11.07;;;;;;;14.54;100.00;101862.41;5045878;28;20048;-66
2021/09/02 05:46:57;;;;;;;16.33;10.55;;;;;;;14.77;100.00;101863.78;5034931;28;20140;-66
2021/09/02 05:49:24;;;;;;;15.40;10.40;;;;;;;14.77;100.00;101854.94;5055831;28;20210;-66
2021/09/02 05:51:51;;;;;;;13.40;10.13;;;;;;;15.01;100.00;101850.06;5029215;28;20089;-65
2021/09/02 05:54:21;;;;;;;19.02;9.57;;;;;;;15.21;100.00;101855.03;5035546;28;20182;-66
2021/09/02 05:56:48;;;;;;;16.00;9.48;;;;;;;15.55;100.00;101858.34;5031834;28;20110;-66
2021/09/02 05:59:16;;;;;;;15.32;10.13;;;;;;;15.80;100.00;101863.03;5029939;28;20099;-67
2021/09/02 06:01:43;;;;;;;17.30;10.38;;;;;;;15.80;100.00;101860.38;5047591;28;20053;-66
2021/09/02 06:04:11;;;;;;;16.60;10.35;;;;;;;15.55;100.00;101866.31;5051007;28;20053;-65
2021/09/02 06:06:38;;;;;;;26.35;12.35;;;;;;;15.72;100.00;101870.63;5049261;28;20045;-66
2021/09/02 06:09:07;;;;;;;17.17;10.25;;;;;;;15.90;99.53;101870.38;5003606;28;20072;-65
2021/09/02 06:11:35;;;;;;;19.73;11.18;;;;;;;15.96;99.36;101874.44;5028030;28;20128;-67
2021/09/02 06:14:02;;;;;;;16.08;10.50;;;;;;;16.17;98.67;101873.13;5044283;28;20076;-67
2021/09/02 06:16:30;;;;;;;15.82;10.45;;;;;;;16.25;97.72;101871.75;5034069;28;20056;-67
2021/09/02 06:18:57;;;;;;;17.25;11.52;;;;;;;16.47;96.38;101874.75;5030212;28;20148;-66
2021/09/02 06:21:24;;;;;;;18.88;10.02;;;;;;;17.07;94.08;101878.91;5015044;28;20503;-66
2021/09/02 06:23:52;;;;;;;27.90;10.50;;;;;;;18.58;85.42;101875.50;5005067;28;20044;-65
2021/09/02 06:26:19;;;;;;;20.10;9.50;;;;;;;20.60;74.90;101871.53;5024755;28;20057;-66
2021/09/02 06:28:47;;;;;;;14.88;8.73;;;;;;;22.48;65.64;101871.50;5043237;28;20051;-66
2021/09/02 06:31:19;;;;;;;18.48;9.52;;;;;;;23.11;61.04;101878.41;5029342;28;20049;-66
2021/09/02 06:33:46;;;;;;;16.00;8.45;;;;;;;24.00;57.32;101879.81;5052213;28;20132;-66
2021/09/02 06:36:13;;;;;;;19.98;9.38;;;;;;;24.33;55.38;101880.22;5030030;28;20052;-66
2021/09/02 06:38:41;;;;;;;15.70;8.13;;;;;;;25.14;52.63;101880.28;5046478;28;20068;-66
2021/09/02 06:41:08;;;;;;;16.90;7.97;;;;;;;25.03;52.26;101883.16;5043365;28;20065;-66
2021/09/02 06:43:35;;;;;;;16.40;8.50;;;;;;;24.40;53.74;101884.03;5048288;28;20102;-65
2021/09/02 06:46:02;;;;;;;15.55;8.90;;;;;;;25.77;50.89;101891.91;5053562;28;20132;-66
2021/09/02 06:48:30;;;;;;;16.48;8.00;;;;;;;26.39;48.40;101887.16;5042978;28;20052;-67
2021/09/02 06:50:57;;;;;;;14.13;8.05;;;;;;;26.92;47.23;101888.66;5023143;28;20688;-66
2021/09/02 06:53:24;;;;;;;18.60;8.85;;;;;;;27.33;45.12;101894.09;5028756;28;20060;-66
2021/09/02 06:55:51;;;;;;;20.38;8.40;;;;;;;25.29;50.48;101901.28;5029048;28;20140;-67
2021/09/02 06:58:18;;;;;;;17.65;7.80;;;;;;;25.15;51.06;101908.94;5043811;28;20163;-66
2021/09/02 07:00:46;;;;;;;16.08;7.95;;;;;;;25.78;49.70;101904.38;5044969;28;20083;-66
2021/09/02 07:03:14;;;;;;;15.82;8.38;;;;;;;26.13;48.45;101908.81;5042516;28;20422;-66
2021/09/02 07:05:42;;;;;;;17.30;10.30;;;;;;;28.19;43.58;101905.16;5007036;28;20049;-66
2021/09/02 07:08:09;;;;;;;15.43;7.93;;;;;;;27.93;42.46;101912.66;5005981;28;20135;-65
2021/09/02 07:10:36;;;;;;;15.93;7.10;;;;;;;27.65;43.34;101913.03;5030248;28;20055;-65
2021/09/02 07:13:04;;;;;;;16.38;8.23;;;;;;;26.89;44.98;101913.31;5046078;28;20136;-66
2021/09/02 07:15:32;;;;;;;8.98;6.47;;;;;;;27.40;43.95;101914.06;5019891;28;20045;-66
2021/09/02 07:17:59;;;;;;;12.60;7.50;;;;;;;25.91;46.08;101924.53;5051061;28;20045;-66
2021/09/02 07:20:26;;;;;;;16.13;7.30;;;;;;;26.08;46.12;101921.94;5049892;28;20123;-66
2021/09/02 07:22:54;;;;;;;12.30;7.32;;;;;;;26.40;45.45;101929.34;4989047;28;20439;-66
2021/09/02 07:25:21;;;;;;;11.15;7.18;;;;;;;26.10;46.70;101930.72;5035625;28;20461;-66
2021/09/02 07:27:48;;;;;;;12.13;7.28;;;;;;;27.07;44.73;101935.66;5033528;28;20522;-66
2021/09/02 07:30:15;;;;;;;14.10;6.82;;;;;;;28.06;42.07;101926.50;5047215;28;20106;-66
2021/09/02 07:32:43;;;;;;;17.65;7.07;;;;;;;27.62;42.39;101926.06;5016590;28;20080;-65
2021/09/02 07:35:10;;;;;;;13.50;7.75;;;;;;;28.27;41.75;101926.75;5047406;28;20120;-67
2021/09/02 07:37:37;;;;;;;14.80;7.78;;;;;;;28.44;40.69;101937.56;5044130;28;20144;-66
2021/09/02 07:40:05;;;;;;;12.48;7.45;;;;;;;27.25;43.46;101933.66;5049091;28;20455;-67
2021/09/02 07:42:32;;;;;;;13.35;7.50;;;;;;;27.09;43.50;101935.50;5032561;28;20049;-65
2021/09/02 07:45:02;;;;;;;12.32;7.63;;;;;;;27.20;43.39;101938.75;5029301;28;20473;-66
2021/09/02 07:47:33;;;;;;;12.80;7.53;;;;;;;26.86;43.94;101941.50;5042217;28;20041;-67
2021/09/02 07:50:01;;;;;;;12.00;8.18;;;;;;;26.99;44.52;101941.03;5046921;28;20145;-65
2021/09/02 07:52:30;;;;;;;15.65;8.02;;;;;;;26.65;44.53;101944.66;5016461;28;20049;-66
2021/09/02 07:54:57;;;;;;;14.63;7.50;;;;;;;27.86;42.46;101939.56;5029190;28;20467;-66
2021/09/02 07:57:25;;;;;;;15.70;7.15;;;;;;;29.59;39.10;101940.41;5012788;28;20053;-66
2021/09/02 07:59:52;;;;;;;13.02;7.45;;;;;;;31.49;35.10;101939.50;5025347;28;20124;-66
2021/09/02 08:02:20;;;;;;;19.00;8.23;;;;;;;30.14;37.41;101948.19;5045489;28;20044;-67
2021/09/02 08:04:47;;;;;;;14.30;7.65;;;;;;;30.01;37.41;101948.78;5023940;28;20549;-66
2021/09/02 08:07:14;;;;;;;14.85;7.70;;;;;;;30.04;37.15;101954.91;5022339;28;20072;-66
2021/09/02 08:09:41;;;;;;;11.48;7.45;;;;;;;30.46;36.39;101946.09;5022082;28;20041;-67
2021/09/02 08:12:09;;;;;;;13.57;8.13;;;;;;;30.10;37.43;101946.84;5027544;28;20507;-66
2021/09/02 08:14:36;;;;;;;10.30;6.82;;;;;;;28.76;39.63;101950.09;5046935;28;20112;-66
2021/09/02 08:17:04;;;;;;;11.88;7.25;;;;;;;29.20;38.08;101949.50;5041072;28;20086;-67
2021/09/02 08:19:31;;;;;;;14.73;8.05;;;;;;;29.71;37.37;101957.94;5026663;28;20498;-69
2021/09/02 08:21:58;;;;;;;9.52;7.80;;;;;;;27.71;40.69;101955.63;5036593;28;20141;-67
2021/09/02 08:24:25;;;;;;;9.70;7.53;;;;;;;27.51;41.74;101956.97;5062070;28;20077;-67
2021/09/02 08:26:53;;;;;;;13.43;8.73;;;;;;;26.64;42.42;101964.56;5007254;28;20077;-67
2021/09/02 08:29:20;;;;;;;12.00;8.18;;;;;;;27.42;41.84;101953.47;5049180;28;20584;-67
2021/09/02 08:31:48;;;;;;;15.60;8.45;;;;;;;28.47;40.37;101964.31;5025669;28;20061;-66
2021/09/02 08:34:15;;;;;;;14.48;8.52;;;;;;;26.49;44.35;101968.91;5037088;28;20097;-67
2021/09/02 08:36:42;;;;;;;16.58;9.50;;;;;;;26.45;44.42;101970.25;5043643;28;20088;-66
2021/09/02 08:39:09;;;;;;;15.57;8.63;;;;;;;26.43;44.76;101969.50;5028948;28;20056;-67
2021/09/02 08:41:36;;;;;;;18.23;8.40;;;;;;;25.55;47.57;101968.75;5033119;28;20037;-66
2021/09/02 08:44:04;;;;;;;12.45;9.38;;;;;;;23.93;51.69;101966.63;5048196;28;20040;-67
2021/09/02 08:46:33;;;;;;;13.65;8.63;;;;;;;23.26;53.45;101973.69;5029198;28;20068;-67
2021/09/02 08:49:03;;;;;;;13.90;8.60;;;;;;;23.33;54.48;101979.38;5051194;28;20056;-68
2021/09/02 08:51:30;;;;;;;14.02;8.30;;;;;;;23.32;54.22;101977.66;5039577;28;20080;-66
2021/09/02 08:53:57;;;;;;;12.52;9.10;;;;;;;22.87;55.68;101973.59;5042413;28;20131;-66
2021/09/02 08:56:25;;;;;;;16.33;8.98;;;;;;;22.39;56.77;101981.50;5042819;28;20094;-67
2021/09/02 08:58:52;;;;;;;9.90;7.80;;;;;;;22.17;57.33;101980.69;5030151;28;20132;-66
2021/09/02 09:01:19;;;;;;;11.48;8.15;;;;;;;21.85;58.16;101975.38;5049212;28;20068;-66
2021/09/02 09:03:50;;;;;;;11.98;8.68;;;;;;;21.59;59.71;101984.78;5054244;28;20487;-66
2021/09/02 09:06:23;;;;;;;12.35;7.78;;;;;;;20.96;61.78;101985.44;5027724;28;20069;-66
2021/09/02 09:08:50;;;;;;;14.05;7.38;;;;;;;21.10;61.62;101989.66;5029699;28;20041;-66
2021/09/02 09:11:28;;;;;;;10.02;8.52;;;;;;;20.52;63.01;101994.34;5034257;28;20060;-65
2021/09/02 09:14:04;;;;;;;10.57;7.82;;;;;;;20.60;63.25;102005.28;5041952;28;20128;-66
2021/09/02 09:16:55;;;;;;;8.98;7.40;;;;;;;20.58;63.15;101998.34;5044499;28;20045;-67
2021/09/02 09:19:43;;;;;;;11.32;6.88;;;;;;;20.55;63.14;101995.94;5044073;28;20088;-67
2021/09/02 09:22:13;;;;;;;14.10;7.53;;;;;;;19.82;65.80;101991.81;5034924;28;20049;-66
2021/09/02 09:24:50;;;;;;;7.75;6.15;;;;;;;19.53;67.18;101991.28;5025966;28;20151;-67
2021/09/02 09:27:23;;;;;;;7.63;5.88;;;;;;;18.82;70.29;101991.16;5030053;28;20053;-66
2021/09/02 09:30:23;;;;;;;9.15;7.35;;;;;;;18.56;72.22;102003.66;5037189;28;20088;-66
2021/09/02 09:33:03;;;;;;;8.18;6.03;;;;;;;18.82;71.60;101995.59;4978948;28;20045;-67
2021/09/02 09:35:34;;;;;;;9.80;7.03;;;;;;;18.77;71.96;102003.09;5046580;28;20136;-66
2021/09/02 09:38:05;;;;;;;9.23;6.53;;;;;;;18.18;74.61;102009.81;5038535;28;20075;-68
2021/09/02 09:40:34;;;;;;;14.85;6.65;;;;;;;18.42;73.36;102003.75;5027389;28;20131;-66
2021/09/02 09:43:23;;;;;;;6.70;6.00;;;;;;;18.46;73.96;102010.56;5038593;28;20045;-67
2021/09/02 09:45:55;;;;;;;7.88;6.55;;;;;;;18.86;72.11;102013.09;5013585;28;20136;-66
2021/09/02 09:48:23;;;;;;;7.40;5.82;;;;;;;18.84;72.38;102017.72;5043676;28;20053;-66
2021/09/02 09:51:18;;;;;;;8.43;7.30;;;;;;;18.25;74.48;102012.09;5038670;28;20049;-66
2021/09/02 09:53:48;;;;;;;14.15;7.35;;;;;;;18.15;75.28;102014.53;5033303;28;20463;-66
2021/09/02 09:56:17;;;;;;;10.25;6.63;;;;;;;18.37;75.62;102011.22;5025842;28;20575;-67
2021/09/02 09:58:45;;;;;;;8.88;6.68;;;;;;;18.57;74.68;102010.69;5028627;28;20110;-68
2021/09/02 10:01:13;;;;;;;9.20;6.32;;;;;;;18.45;75.80;102007.03;5036966;28;20064;-66
2021/09/02 10:03:42;;;;;;;9.70;7.50;;;;;;;18.49;75.26;102015.69;5020911;28;20048;-67
2021/09/02 10:06:13;;;;;;;24.65;8.13;;;;;;;18.11;77.38;102018.38;5033550;28;20078;-66
2021/09/02 10:08:42;;;;;;;16.23;7.55;;;;;;;18.14;78.31;102008.31;5003840;28;20037;-67
2021/09/02 10:11:14;;;;;;;14.10;6.60;;;;;;;18.83;74.76;102000.84;5019921;28;20044;-67
2021/09/02 10:13:42;;;;;;;9.07;6.22;;;;;;;19.01;73.55;102005.84;5030733;28;20071;-66
2021/09/02 10:16:10;;;;;;;23.25;7.30;;;;;;;18.55;75.10;102009.94;5026714;28;20506;-67
2021/09/02 10:18:44;;;;;;;9.50;7.13;;;;;;;17.71;78.29;102007.72;5013720;28;20166;-67
2021/09/02 10:21:13;;;;;;;8.38;6.78;;;;;;;18.37;77.96;102003.22;5032863;28;20175;-65
2021/09/02 10:23:41;;;;;;;10.23;6.07;;;;;;;18.91;75.74;101997.59;5022953;28;20049;-66
2021/09/02 10:26:29;;;;;;;7.15;5.80;;;;;;;19.16;74.47;101997.53;5040674;28;20060;-66
2021/09/02 10:28:56;;;;;;;7.63;6.70;;;;;;;19.06;74.96;101991.19;5031889;28;20514;-66
2021/09/02 10:31:23;;;;;;;9.13;6.57;;;;;;;18.87;75.05;101997.00;5042335;28;20079;-65
2021/09/02 10:33:50;;;;;;;14.70;6.95;;;;;;;18.75;75.75;101997.03;5036499;28;20128;-66
2021/09/02 10:36:18;;;;;;;9.48;6.53;;;;;;;18.93;75.62;101995.69;5028966;28;20060;-66
2021/09/02 10:38:54;;;;;;;11.70;6.63;;;;;;;18.85;74.92;101998.06;5054308;28;20068;-66
2021/09/02 10:41:35;;;;;;;10.63;7.18;;;;;;;18.48;77.89;102004.16;5040500;28;20077;-64
2021/09/02 10:44:14;;;;;;;9.63;8.02;;;;;;;18.26;77.03;102005.78;5050121;28;20041;-66
2021/09/02 10:46:52;;;;;;;10.23;7.45;;;;;;;18.33;77.65;102009.75;5034540;28;20491;-66
2021/09/02 10:49:26;;;;;;;12.48;7.72;;;;;;;18.03;78.75;101996.72;5032332;28;20897;-66
2021/09/02 10:52:02;;;;;;;9.25;8.02;;;;;;;18.31;77.88;102003.66;5060839;28;20072;-66
2021/09/02 10:54:36;;;;;;;13.98;8.68;;;;;;;18.25;77.94;102004.94;5015671;28;20073;-65
2021/09/02 10:57:05;;;;;;;12.25;8.00;;;;;;;18.49;77.99;102010.34;5041743;28;20063;-65
2021/09/02 10:59:43;;;;;;;14.45;8.10;;;;;;;18.56;76.38;102000.13;5033513;28;20144;-66
2021/09/02 11:02:16;;;;;;;14.70;8.48;;;;;;;18.42;78.43;102009.09;5024274;28;20091;-66
2021/09/02 11:04:45;;;;;;;14.60;8.65;;;;;;;18.50;77.29;102008.53;5051714;28;20044;-66
2021/09/02 11:07:12;;;;;;;12.65;8.18;;;;;;;18.57;76.49;102005.34;5037368;28;20103;-67
2021/09/02 11:09:42;;;;;;;12.80;7.68;;;;;;;18.70;77.20;102003.53;5049276;28;20136;-67
2021/09/02 11:12:12;;;;;;;12.20;8.63;;;;;;;18.88;75.84;101993.38;5032989;28;20053;-66
2021/09/02 11:14:42;;;;;;;12.70;8.98;;;;;;;18.27;78.64;102004.81;5041766;28;20147;-66
2021/09/02 11:17:10;;;;;;;13.10;8.40;;;;;;;18.32;78.61;102000.88;5061570;28;20057;-66